sensor_id;sensor_type;location;lat;lon;timestamp;P1;durP1;ratioP1;P2;durP2;ratioP2
78312;SDS011;67568;47.438;21.408;2023-08-07T00:02:03;4.32;;;1.50;;
78312;SDS011;67568;47.438;21.408;2023-08-07T00:04:30;4.65;;;1.30;;
78312;SDS011;67568;47.438;21.408;2023-08-07T00:06:57;3.63;;;1.33;;
78312;SDS011;67568;47.438;21.408;2023-08-07T00:09:24;3.40;;;1.40;;
78312;SDS011;67568;47.438;21.408;2023-08-07T00:11:50;3.33;;;1.20;;
78312;SDS011;67568;47.438;21.408;2023-08-07T00:14:17;6.55;;;1.50;;
78312;SDS011;67568;47.438;21.408;2023-08-07T00:16:44;4.82;;;1.35;;
78312;SDS011;67568;47.438;21.408;2023-08-07T00:19:14;4.30;;;1.63;;
78312;SDS011;67568;47.438;21.408;2023-08-07T00:21:40;3.08;;;1.30;;
78312;SDS011;67568;47.438;21.408;2023-08-07T00:24:07;3.50;;;1.43;;
78312;SDS011;67568;47.438;21.408;2023-08-07T00:26:34;3.67;;;1.40;;
78312;SDS011;67568;47.438;21.408;2023-08-07T00:29:01;3.60;;;1.67;;
78312;SDS011;67568;47.438;21.408;2023-08-07T00:31:28;4.25;;;1.50;;
78312;SDS011;67568;47.438;21.408;2023-08-07T00:33:54;4.38;;;1.50;;
78312;SDS011;67568;47.438;21.408;2023-08-07T00:36:22;3.60;;;1.43;;
78312;SDS011;67568;47.438;21.408;2023-08-07T00:38:49;4.30;;;1.70;;
78312;SDS011;67568;47.438;21.408;2023-08-07T00:41:17;3.60;;;1.40;;
78312;SDS011;67568;47.438;21.408;2023-08-07T00:43:46;3.78;;;1.50;;
78312;SDS011;67568;47.438;21.408;2023-08-07T00:46:13;5.97;;;1.65;;
78312;SDS011;67568;47.438;21.408;2023-08-07T00:48:40;5.43;;;1.23;;
78312;SDS011;67568;47.438;21.408;2023-08-07T00:51:08;3.22;;;1.33;;
78312;SDS011;67568;47.438;21.408;2023-08-07T00:53:37;3.83;;;1.23;;
78312;SDS011;67568;47.438;21.408;2023-08-07T00:56:05;2.20;;;1.10;;
78312;SDS011;67568;47.438;21.408;2023-08-07T00:58:32;4.18;;;1.27;;
78312;SDS011;67568;47.438;21.408;2023-08-07T01:01:02;3.63;;;1.23;;
78312;SDS011;67568;47.438;21.408;2023-08-07T01:03:29;4.30;;;1.20;;
78312;SDS011;67568;47.438;21.408;2023-08-07T01:05:56;4.45;;;1.23;;
78312;SDS011;67568;47.438;21.408;2023-08-07T01:08:23;4.10;;;1.25;;
78312;SDS011;67568;47.438;21.408;2023-08-07T01:16:33;3.35;;;1.10;;
78312;SDS011;67568;47.438;21.408;2023-08-07T01:19:03;2.67;;;1.10;;
78312;SDS011;67568;47.438;21.408;2023-08-07T01:21:34;3.00;;;1.15;;
78312;SDS011;67568;47.438;21.408;2023-08-07T01:24:01;2.75;;;1.00;;
78312;SDS011;67568;47.438;21.408;2023-08-07T01:26:28;2.63;;;0.90;;
78312;SDS011;67568;47.438;21.408;2023-08-07T01:28:59;2.45;;;1.10;;
78312;SDS011;67568;47.438;21.408;2023-08-07T01:31:33;2.60;;;1.00;;
78312;SDS011;67568;47.438;21.408;2023-08-07T01:34:05;2.88;;;1.00;;
78312;SDS011;67568;47.438;21.408;2023-08-07T01:36:34;2.50;;;1.00;;
78312;SDS011;67568;47.438;21.408;2023-08-07T01:39:01;2.33;;;0.97;;
78312;SDS011;67568;47.438;21.408;2023-08-07T01:41:29;2.53;;;0.80;;
78312;SDS011;67568;47.438;21.408;2023-08-07T01:43:56;1.92;;;0.70;;
78312;SDS011;67568;47.438;21.408;2023-08-07T01:46:24;2.08;;;0.88;;
78312;SDS011;67568;47.438;21.408;2023-08-07T01:48:50;4.18;;;0.80;;
78312;SDS011;67568;47.438;21.408;2023-08-07T01:51:17;1.67;;;0.70;;
78312;SDS011;67568;47.438;21.408;2023-08-07T01:53:44;1.70;;;0.70;;
78312;SDS011;67568;47.438;21.408;2023-08-07T01:56:11;1.70;;;0.80;;
78312;SDS011;67568;47.438;21.408;2023-08-07T01:58:37;3.38;;;0.80;;
78312;SDS011;67568;47.438;21.408;2023-08-07T02:01:04;2.05;;;0.70;;
78312;SDS011;67568;47.438;21.408;2023-08-07T02:03:31;4.03;;;0.70;;
78312;SDS011;67568;47.438;21.408;2023-08-07T02:05:58;1.92;;;0.70;;
78312;SDS011;67568;47.438;21.408;2023-08-07T02:08:25;1.20;;;0.63;;
78312;SDS011;67568;47.438;21.408;2023-08-07T02:10:51;2.40;;;0.63;;
78312;SDS011;67568;47.438;21.408;2023-08-07T02:13:18;2.13;;;0.60;;
78312;SDS011;67568;47.438;21.408;2023-08-07T02:15:47;1.50;;;0.50;;
78312;SDS011;67568;47.438;21.408;2023-08-07T02:18:14;3.95;;;0.60;;
78312;SDS011;67568;47.438;21.408;2023-08-07T02:20:42;2.00;;;0.70;;
78312;SDS011;67568;47.438;21.408;2023-08-07T02:23:09;4.07;;;0.70;;
78312;SDS011;67568;47.438;21.408;2023-08-07T02:25:35;3.08;;;0.50;;
78312;SDS011;67568;47.438;21.408;2023-08-07T02:28:02;2.37;;;0.50;;
78312;SDS011;67568;47.438;21.408;2023-08-07T02:30:30;2.45;;;0.40;;
78312;SDS011;67568;47.438;21.408;2023-08-07T02:32:58;1.05;;;0.40;;
78312;SDS011;67568;47.438;21.408;2023-08-07T02:35:28;2.17;;;0.50;;
78312;SDS011;67568;47.438;21.408;2023-08-07T02:37:55;2.03;;;0.50;;
78312;SDS011;67568;47.438;21.408;2023-08-07T02:40:21;1.40;;;0.43;;
78312;SDS011;67568;47.438;21.408;2023-08-07T02:42:48;2.15;;;0.40;;
78312;SDS011;67568;47.438;21.408;2023-08-07T02:45:15;1.60;;;0.47;;
78312;SDS011;67568;47.438;21.408;2023-08-07T02:47:42;0.82;;;0.40;;
78312;SDS011;67568;47.438;21.408;2023-08-07T02:50:08;1.30;;;0.40;;
78312;SDS011;67568;47.438;21.408;2023-08-07T02:52:35;0.80;;;0.40;;
78312;SDS011;67568;47.438;21.408;2023-08-07T02:55:02;2.75;;;0.40;;
78312;SDS011;67568;47.438;21.408;2023-08-07T02:57:29;0.80;;;0.40;;
78312;SDS011;67568;47.438;21.408;2023-08-07T02:59:56;1.10;;;0.50;;
78312;SDS011;67568;47.438;21.408;2023-08-07T03:02:22;1.75;;;0.50;;
78312;SDS011;67568;47.438;21.408;2023-08-07T03:04:49;3.37;;;0.50;;
78312;SDS011;67568;47.438;21.408;2023-08-07T03:07:16;1.45;;;0.40;;
78312;SDS011;67568;47.438;21.408;2023-08-07T03:09:46;3.22;;;0.40;;
78312;SDS011;67568;47.438;21.408;2023-08-07T03:12:13;1.10;;;0.50;;
78312;SDS011;67568;47.438;21.408;2023-08-07T03:14:39;0.80;;;0.40;;
78312;SDS011;67568;47.438;21.408;2023-08-07T03:17:07;1.13;;;0.40;;
78312;SDS011;67568;47.438;21.408;2023-08-07T03:19:33;1.05;;;0.40;;
78312;SDS011;67568;47.438;21.408;2023-08-07T03:22:02;3.25;;;1.23;;
78312;SDS011;67568;47.438;21.408;2023-08-07T03:24:28;1.25;;;0.40;;
78312;SDS011;67568;47.438;21.408;2023-08-07T03:26:55;3.55;;;0.45;;
78312;SDS011;67568;47.438;21.408;2023-08-07T03:29:22;1.97;;;0.53;;
78312;SDS011;67568;47.438;21.408;2023-08-07T03:31:49;1.70;;;0.40;;
78312;SDS011;67568;47.438;21.408;2023-08-07T03:34:16;4.70;;;0.50;;
78312;SDS011;67568;47.438;21.408;2023-08-07T03:36:44;6.40;;;1.70;;
78312;SDS011;67568;47.438;21.408;2023-08-07T03:39:11;0.75;;;0.35;;
78312;SDS011;67568;47.438;21.408;2023-08-07T03:41:38;1.00;;;0.30;;
78312;SDS011;67568;47.438;21.408;2023-08-07T03:44:05;2.03;;;0.40;;
78312;SDS011;67568;47.438;21.408;2023-08-07T03:46:31;3.08;;;0.40;;
78312;SDS011;67568;47.438;21.408;2023-08-07T03:49:05;0.70;;;0.30;;
78312;SDS011;67568;47.438;21.408;2023-08-07T03:51:32;2.90;;;0.50;;
78312;SDS011;67568;47.438;21.408;2023-08-07T03:53:59;0.53;;;0.30;;
78312;SDS011;67568;47.438;21.408;2023-08-07T03:56:26;1.10;;;0.40;;
78312;SDS011;67568;47.438;21.408;2023-08-07T03:58:55;1.70;;;0.40;;
78312;SDS011;67568;47.438;21.408;2023-08-07T04:01:22;1.23;;;0.30;;
78312;SDS011;67568;47.438;21.408;2023-08-07T04:03:49;2.35;;;0.35;;
78312;SDS011;67568;47.438;21.408;2023-08-07T04:06:16;0.70;;;0.40;;
78312;SDS011;67568;47.438;21.408;2023-08-07T04:08:44;2.40;;;0.38;;
78312;SDS011;67568;47.438;21.408;2023-08-07T04:11:12;0.73;;;0.30;;
78312;SDS011;67568;47.438;21.408;2023-08-07T04:13:39;1.35;;;0.30;;
78312;SDS011;67568;47.438;21.408;2023-08-07T04:16:08;2.90;;;0.40;;
78312;SDS011;67568;47.438;21.408;2023-08-07T04:18:35;1.50;;;0.40;;
78312;SDS011;67568;47.438;21.408;2023-08-07T04:21:01;0.50;;;0.30;;
78312;SDS011;67568;47.438;21.408;2023-08-07T04:23:28;0.57;;;0.30;;
78312;SDS011;67568;47.438;21.408;2023-08-07T04:25:55;3.08;;;0.55;;
78312;SDS011;67568;47.438;21.408;2023-08-07T04:28:23;1.33;;;0.50;;
78312;SDS011;67568;47.438;21.408;2023-08-07T04:30:50;1.00;;;0.30;;
78312;SDS011;67568;47.438;21.408;2023-08-07T04:33:18;1.67;;;0.38;;
78312;SDS011;67568;47.438;21.408;2023-08-07T04:35:45;2.28;;;0.50;;
78312;SDS011;67568;47.438;21.408;2023-08-07T04:38:13;1.48;;;0.35;;
78312;SDS011;67568;47.438;21.408;2023-08-07T04:40:47;4.30;;;0.40;;
78312;SDS011;67568;47.438;21.408;2023-08-07T04:43:15;1.10;;;0.40;;
78312;SDS011;67568;47.438;21.408;2023-08-07T04:45:43;1.08;;;0.50;;
78312;SDS011;67568;47.438;21.408;2023-08-07T04:48:10;3.45;;;0.55;;
78312;SDS011;67568;47.438;21.408;2023-08-07T04:50:37;1.40;;;0.40;;
78312;SDS011;67568;47.438;21.408;2023-08-07T04:53:04;1.45;;;0.40;;
78312;SDS011;67568;47.438;21.408;2023-08-07T04:55:34;1.13;;;0.40;;
78312;SDS011;67568;47.438;21.408;2023-08-07T04:58:01;1.58;;;0.47;;
78312;SDS011;67568;47.438;21.408;2023-08-07T05:00:28;2.63;;;0.50;;
78312;SDS011;67568;47.438;21.408;2023-08-07T05:02:55;2.75;;;0.50;;
78312;SDS011;67568;47.438;21.408;2023-08-07T05:05:22;1.10;;;0.40;;
78312;SDS011;67568;47.438;21.408;2023-08-07T05:07:49;1.20;;;0.47;;
78312;SDS011;67568;47.438;21.408;2023-08-07T05:10:15;2.63;;;0.40;;
78312;SDS011;67568;47.438;21.408;2023-08-07T05:12:42;1.17;;;0.38;;
78312;SDS011;67568;47.438;21.408;2023-08-07T05:15:09;1.58;;;0.40;;
78312;SDS011;67568;47.438;21.408;2023-08-07T05:17:36;1.25;;;0.40;;
78312;SDS011;67568;47.438;21.408;2023-08-07T05:20:03;2.90;;;0.40;;
78312;SDS011;67568;47.438;21.408;2023-08-07T05:22:30;0.70;;;0.40;;
78312;SDS011;67568;47.438;21.408;2023-08-07T05:24:57;0.60;;;0.30;;
78312;SDS011;67568;47.438;21.408;2023-08-07T05:27:24;1.52;;;0.30;;
78312;SDS011;67568;47.438;21.408;2023-08-07T05:29:51;1.30;;;0.40;;
78312;SDS011;67568;47.438;21.408;2023-08-07T05:32:17;1.57;;;0.40;;
78312;SDS011;67568;47.438;21.408;2023-08-07T05:34:44;0.75;;;0.30;;
78312;SDS011;67568;47.438;21.408;2023-08-07T05:37:11;1.30;;;0.50;;
78312;SDS011;67568;47.438;21.408;2023-08-07T05:39:38;2.58;;;0.50;;
78312;SDS011;67568;47.438;21.408;2023-08-07T05:42:05;3.38;;;0.50;;
78312;SDS011;67568;47.438;21.408;2023-08-07T05:44:32;2.33;;;0.50;;
78312;SDS011;67568;47.438;21.408;2023-08-07T05:46:59;0.98;;;0.40;;
78312;SDS011;67568;47.438;21.408;2023-08-07T05:49:25;1.05;;;0.40;;
78312;SDS011;67568;47.438;21.408;2023-08-07T05:51:53;1.67;;;0.40;;
78312;SDS011;67568;47.438;21.408;2023-08-07T05:54:20;1.30;;;0.40;;
78312;SDS011;67568;47.438;21.408;2023-08-07T05:56:47;1.47;;;0.43;;
78312;SDS011;67568;47.438;21.408;2023-08-07T05:59:14;2.67;;;0.40;;
78312;SDS011;67568;47.438;21.408;2023-08-07T06:01:41;1.30;;;0.40;;
78312;SDS011;67568;47.438;21.408;2023-08-07T06:04:08;0.60;;;0.30;;
78312;SDS011;67568;47.438;21.408;2023-08-07T06:06:34;1.48;;;0.35;;
78312;SDS011;67568;47.438;21.408;2023-08-07T06:09:01;1.20;;;0.40;;
78312;SDS011;67568;47.438;21.408;2023-08-07T06:11:31;0.80;;;0.40;;
78312;SDS011;67568;47.438;21.408;2023-08-07T06:13:58;1.60;;;0.40;;
78312;SDS011;67568;47.438;21.408;2023-08-07T06:16:25;1.13;;;0.40;;
78312;SDS011;67568;47.438;21.408;2023-08-07T06:18:56;1.85;;;0.40;;
78312;SDS011;67568;47.438;21.408;2023-08-07T06:21:23;1.10;;;0.40;;
78312;SDS011;67568;47.438;21.408;2023-08-07T06:23:50;1.02;;;0.40;;
78312;SDS011;67568;47.438;21.408;2023-08-07T06:26:17;2.90;;;0.40;;
78312;SDS011;67568;47.438;21.408;2023-08-07T06:28:44;2.83;;;0.50;;
78312;SDS011;67568;47.438;21.408;2023-08-07T06:31:11;2.40;;;0.50;;
78312;SDS011;67568;47.438;21.408;2023-08-07T06:33:41;0.67;;;0.33;;
78312;SDS011;67568;47.438;21.408;2023-08-07T06:36:08;3.22;;;0.30;;
78312;SDS011;67568;47.438;21.408;2023-08-07T06:38:35;2.33;;;0.40;;
78312;SDS011;67568;47.438;21.408;2023-08-07T06:41:02;1.38;;;0.40;;
78312;SDS011;67568;47.438;21.408;2023-08-07T06:43:29;1.05;;;0.32;;
78312;SDS011;67568;47.438;21.408;2023-08-07T06:45:56;0.90;;;0.40;;
78312;SDS011;67568;47.438;21.408;2023-08-07T06:48:24;0.88;;;0.30;;
78312;SDS011;67568;47.438;21.408;2023-08-07T06:50:50;1.65;;;0.30;;
78312;SDS011;67568;47.438;21.408;2023-08-07T06:53:17;1.35;;;0.32;;
78312;SDS011;67568;47.438;21.408;2023-08-07T06:55:45;1.65;;;0.40;;
78312;SDS011;67568;47.438;21.408;2023-08-07T06:58:12;2.23;;;0.40;;
78312;SDS011;67568;47.438;21.408;2023-08-07T07:00:39;1.48;;;0.40;;
78312;SDS011;67568;47.438;21.408;2023-08-07T07:03:06;1.95;;;0.30;;
78312;SDS011;67568;47.438;21.408;2023-08-07T07:05:33;1.02;;;0.30;;
78312;SDS011;67568;47.438;21.408;2023-08-07T07:07:59;1.35;;;0.38;;
78312;SDS011;67568;47.438;21.408;2023-08-07T07:10:31;2.80;;;1.10;;
78312;SDS011;67568;47.438;21.408;2023-08-07T07:13:00;0.80;;;0.30;;
78312;SDS011;67568;47.438;21.408;2023-08-07T07:15:27;1.63;;;0.40;;
78312;SDS011;67568;47.438;21.408;2023-08-07T07:17:54;2.40;;;0.40;;
78312;SDS011;67568;47.438;21.408;2023-08-07T07:20:20;0.70;;;0.40;;
78312;SDS011;67568;47.438;21.408;2023-08-07T07:22:47;1.93;;;0.40;;
78312;SDS011;67568;47.438;21.408;2023-08-07T07:25:14;1.55;;;0.30;;
78312;SDS011;67568;47.438;21.408;2023-08-07T07:27:41;1.58;;;0.40;;
78312;SDS011;67568;47.438;21.408;2023-08-07T07:30:11;0.93;;;0.30;;
78312;SDS011;67568;47.438;21.408;2023-08-07T07:32:38;1.38;;;0.40;;
78312;SDS011;67568;47.438;21.408;2023-08-07T07:35:04;0.67;;;0.30;;
78312;SDS011;67568;47.438;21.408;2023-08-07T07:37:32;1.10;;;0.30;;
78312;SDS011;67568;47.438;21.408;2023-08-07T07:40:01;2.35;;;0.47;;
78312;SDS011;67568;47.438;21.408;2023-08-07T07:42:28;1.42;;;0.40;;
78312;SDS011;67568;47.438;21.408;2023-08-07T07:44:57;0.70;;;0.30;;
78312;SDS011;67568;47.438;21.408;2023-08-07T07:47:24;0.63;;;0.30;;
78312;SDS011;67568;47.438;21.408;2023-08-07T07:50:03;3.10;;;0.50;;
78312;SDS011;67568;47.438;21.408;2023-08-07T07:52:31;1.27;;;0.30;;
78312;SDS011;67568;47.438;21.408;2023-08-07T07:55:01;1.27;;;0.40;;
78312;SDS011;67568;47.438;21.408;2023-08-07T07:57:27;1.00;;;0.40;;
78312;SDS011;67568;47.438;21.408;2023-08-07T07:59:54;2.33;;;0.40;;
78312;SDS011;67568;47.438;21.408;2023-08-07T08:02:21;1.27;;;0.40;;
78312;SDS011;67568;47.438;21.408;2023-08-07T08:04:48;0.70;;;0.30;;
78312;SDS011;67568;47.438;21.408;2023-08-07T08:07:15;1.80;;;0.40;;
78312;SDS011;67568;47.438;21.408;2023-08-07T08:09:44;1.15;;;0.40;;
78312;SDS011;67568;47.438;21.408;2023-08-07T08:12:14;2.97;;;0.30;;
78312;SDS011;67568;47.438;21.408;2023-08-07T08:14:40;0.90;;;0.40;;
78312;SDS011;67568;47.438;21.408;2023-08-07T08:17:21;0.82;;;0.30;;
78312;SDS011;67568;47.438;21.408;2023-08-07T08:19:49;0.70;;;0.30;;
78312;SDS011;67568;47.438;21.408;2023-08-07T08:22:17;1.00;;;0.30;;
78312;SDS011;67568;47.438;21.408;2023-08-07T08:24:44;1.80;;;0.40;;
78312;SDS011;67568;47.438;21.408;2023-08-07T08:27:10;4.30;;;0.40;;
78312;SDS011;67568;47.438;21.408;2023-08-07T08:29:37;2.33;;;0.32;;
78312;SDS011;67568;47.438;21.408;2023-08-07T08:32:04;1.45;;;0.38;;
78312;SDS011;67568;47.438;21.408;2023-08-07T08:34:31;1.70;;;0.40;;
78312;SDS011;67568;47.438;21.408;2023-08-07T08:37:00;1.43;;;0.70;;
78312;SDS011;67568;47.438;21.408;2023-08-07T08:39:27;2.15;;;0.40;;
78312;SDS011;67568;47.438;21.408;2023-08-07T08:41:53;1.70;;;0.40;;
78312;SDS011;67568;47.438;21.408;2023-08-07T08:44:20;1.77;;;0.50;;
78312;SDS011;67568;47.438;21.408;2023-08-07T08:46:49;2.33;;;0.47;;
78312;SDS011;67568;47.438;21.408;2023-08-07T08:49:17;3.10;;;0.40;;
78312;SDS011;67568;47.438;21.408;2023-08-07T08:51:49;2.42;;;0.40;;
78312;SDS011;67568;47.438;21.408;2023-08-07T08:54:17;1.75;;;0.40;;
78312;SDS011;67568;47.438;21.408;2023-08-07T08:56:47;1.17;;;0.40;;
78312;SDS011;67568;47.438;21.408;2023-08-07T08:59:14;1.58;;;0.40;;
78312;SDS011;67568;47.438;21.408;2023-08-07T09:01:41;2.47;;;0.40;;
78312;SDS011;67568;47.438;21.408;2023-08-07T09:04:10;0.77;;;0.30;;
78312;SDS011;67568;47.438;21.408;2023-08-07T09:06:37;1.48;;;0.40;;
78312;SDS011;67568;47.438;21.408;2023-08-07T09:09:07;0.70;;;0.30;;
78312;SDS011;67568;47.438;21.408;2023-08-07T09:11:36;2.25;;;0.40;;
78312;SDS011;67568;47.438;21.408;2023-08-07T09:14:03;2.30;;;0.40;;
78312;SDS011;67568;47.438;21.408;2023-08-07T09:16:30;1.88;;;0.40;;
78312;SDS011;67568;47.438;21.408;2023-08-07T09:18:58;2.85;;;0.50;;
78312;SDS011;67568;47.438;21.408;2023-08-07T09:21:24;3.63;;;0.40;;
78312;SDS011;67568;47.438;21.408;2023-08-07T09:23:52;1.45;;;0.50;;
78312;SDS011;67568;47.438;21.408;2023-08-07T09:26:21;1.47;;;0.30;;
78312;SDS011;67568;47.438;21.408;2023-08-07T09:28:50;1.48;;;0.40;;
78312;SDS011;67568;47.438;21.408;2023-08-07T09:31:21;2.53;;;0.47;;
78312;SDS011;67568;47.438;21.408;2023-08-07T09:33:49;2.65;;;0.40;;
78312;SDS011;67568;47.438;21.408;2023-08-07T09:36:16;2.50;;;0.47;;
78312;SDS011;67568;47.438;21.408;2023-08-07T09:38:43;2.10;;;0.40;;
78312;SDS011;67568;47.438;21.408;2023-08-07T09:41:09;1.65;;;0.80;;
78312;SDS011;67568;47.438;21.408;2023-08-07T09:43:36;2.20;;;0.50;;
78312;SDS011;67568;47.438;21.408;2023-08-07T09:46:04;1.30;;;0.40;;
78312;SDS011;67568;47.438;21.408;2023-08-07T09:48:32;2.50;;;0.57;;
78312;SDS011;67568;47.438;21.408;2023-08-07T09:51:06;1.97;;;0.40;;
78312;SDS011;67568;47.438;21.408;2023-08-07T09:53:33;1.33;;;0.40;;
78312;SDS011;67568;47.438;21.408;2023-08-07T09:56:00;3.78;;;0.50;;
78312;SDS011;67568;47.438;21.408;2023-08-07T09:58:27;1.65;;;0.50;;
78312;SDS011;67568;47.438;21.408;2023-08-07T10:00:54;2.33;;;0.60;;
78312;SDS011;67568;47.438;21.408;2023-08-07T10:03:31;1.10;;;0.50;;
78312;SDS011;67568;47.438;21.408;2023-08-07T10:05:58;3.90;;;0.43;;
78312;SDS011;67568;47.438;21.408;2023-08-07T10:08:25;1.58;;;0.50;;
78312;SDS011;67568;47.438;21.408;2023-08-07T10:10:53;1.45;;;0.43;;
78312;SDS011;67568;47.438;21.408;2023-08-07T10:13:19;1.77;;;0.40;;
78312;SDS011;67568;47.438;21.408;2023-08-07T10:16:03;1.00;;;0.40;;
78312;SDS011;67568;47.438;21.408;2023-08-07T10:18:31;2.55;;;0.40;;
78312;SDS011;67568;47.438;21.408;2023-08-07T10:20:57;2.40;;;0.50;;
78312;SDS011;67568;47.438;21.408;2023-08-07T10:23:26;0.82;;;0.40;;
78312;SDS011;67568;47.438;21.408;2023-08-07T10:25:53;4.15;;;0.60;;
78312;SDS011;67568;47.438;21.408;2023-08-07T10:28:22;2.53;;;0.50;;
78312;SDS011;67568;47.438;21.408;2023-08-07T10:30:53;6.43;;;0.50;;
78312;SDS011;67568;47.438;21.408;2023-08-07T10:33:22;2.78;;;0.50;;
78312;SDS011;67568;47.438;21.408;2023-08-07T10:35:51;2.00;;;0.40;;
78312;SDS011;67568;47.438;21.408;2023-08-07T10:38:19;2.63;;;0.40;;
78312;SDS011;67568;47.438;21.408;2023-08-07T10:40:58;2.60;;;0.50;;
78312;SDS011;67568;47.438;21.408;2023-08-07T10:43:38;4.47;;;0.57;;
78312;SDS011;67568;47.438;21.408;2023-08-07T10:46:11;1.98;;;0.40;;
78312;SDS011;67568;47.438;21.408;2023-08-07T10:48:40;2.85;;;0.52;;
78312;SDS011;67568;47.438;21.408;2023-08-07T10:51:15;2.83;;;0.50;;
78312;SDS011;67568;47.438;21.408;2023-08-07T10:53:45;1.60;;;0.50;;
78312;SDS011;67568;47.438;21.408;2023-08-07T10:59:08;4.68;;;0.40;;
78312;SDS011;67568;47.438;21.408;2023-08-07T11:04:09;3.63;;;0.70;;
78312;SDS011;67568;47.438;21.408;2023-08-07T11:06:41;0.90;;;0.40;;
78312;SDS011;67568;47.438;21.408;2023-08-07T11:09:09;1.70;;;0.40;;
78312;SDS011;67568;47.438;21.408;2023-08-07T11:11:42;4.00;;;0.43;;
78312;SDS011;67568;47.438;21.408;2023-08-07T11:14:14;2.75;;;0.40;;
78312;SDS011;67568;47.438;21.408;2023-08-07T11:16:42;1.40;;;0.40;;
78312;SDS011;67568;47.438;21.408;2023-08-07T11:19:11;0.80;;;0.30;;
78312;SDS011;67568;47.438;21.408;2023-08-07T11:21:40;3.85;;;0.43;;
78312;SDS011;67568;47.438;21.408;2023-08-07T11:24:07;1.08;;;0.40;;
78312;SDS011;67568;47.438;21.408;2023-08-07T11:26:36;3.63;;;0.40;;
78312;SDS011;67568;47.438;21.408;2023-08-07T11:29:02;5.93;;;0.45;;
78312;SDS011;67568;47.438;21.408;2023-08-07T11:31:29;2.60;;;0.40;;
78312;SDS011;67568;47.438;21.408;2023-08-07T11:33:57;4.60;;;0.40;;
78312;SDS011;67568;47.438;21.408;2023-08-07T11:36:24;2.33;;;0.38;;
78312;SDS011;67568;47.438;21.408;2023-08-07T11:38:51;2.83;;;0.50;;
78312;SDS011;67568;47.438;21.408;2023-08-07T11:41:20;2.15;;;0.30;;
78312;SDS011;67568;47.438;21.408;2023-08-07T11:43:47;1.57;;;0.30;;
78312;SDS011;67568;47.438;21.408;2023-08-07T11:46:14;1.23;;;0.40;;
78312;SDS011;67568;47.438;21.408;2023-08-07T11:48:42;0.82;;;0.30;;
78312;SDS011;67568;47.438;21.408;2023-08-07T11:51:10;3.08;;;0.40;;
78312;SDS011;67568;47.438;21.408;2023-08-07T11:53:38;2.42;;;0.40;;
78312;SDS011;67568;47.438;21.408;2023-08-07T11:56:10;2.00;;;0.40;;
78312;SDS011;67568;47.438;21.408;2023-08-07T11:58:38;1.63;;;0.30;;
78312;SDS011;67568;47.438;21.408;2023-08-07T12:01:14;0.88;;;0.30;;
78312;SDS011;67568;47.438;21.408;2023-08-07T12:06:32;1.20;;;0.30;;
78312;SDS011;67568;47.438;21.408;2023-08-07T12:08:59;1.10;;;0.30;;
78312;SDS011;67568;47.438;21.408;2023-08-07T12:11:26;1.33;;;0.30;;
78312;SDS011;67568;47.438;21.408;2023-08-07T12:13:55;1.70;;;0.30;;
78312;SDS011;67568;47.438;21.408;2023-08-07T12:16:22;1.23;;;0.30;;
78312;SDS011;67568;47.438;21.408;2023-08-07T12:18:50;1.13;;;0.40;;
78312;SDS011;67568;47.438;21.408;2023-08-07T12:21:19;1.43;;;0.30;;
78312;SDS011;67568;47.438;21.408;2023-08-07T12:23:47;1.27;;;0.40;;
78312;SDS011;67568;47.438;21.408;2023-08-07T12:26:14;0.75;;;0.32;;
78312;SDS011;67568;47.438;21.408;2023-08-07T12:28:42;0.68;;;0.30;;
78312;SDS011;67568;47.438;21.408;2023-08-07T12:31:14;1.70;;;0.38;;
78312;SDS011;67568;47.438;21.408;2023-08-07T12:33:41;2.83;;;0.30;;
78312;SDS011;67568;47.438;21.408;2023-08-07T12:36:08;6.32;;;0.50;;
78312;SDS011;67568;47.438;21.408;2023-08-07T12:38:38;2.17;;;0.30;;
78312;SDS011;67568;47.438;21.408;2023-08-07T12:41:04;2.22;;;0.40;;
78312;SDS011;67568;47.438;21.408;2023-08-07T12:43:31;1.88;;;0.38;;
78312;SDS011;67568;47.438;21.408;2023-08-07T12:45:59;1.93;;;0.30;;
78312;SDS011;67568;47.438;21.408;2023-08-07T12:48:31;0.60;;;0.30;;
78312;SDS011;67568;47.438;21.408;2023-08-07T12:50:58;1.33;;;0.30;;
78312;SDS011;67568;47.438;21.408;2023-08-07T12:53:24;0.60;;;0.30;;
78312;SDS011;67568;47.438;21.408;2023-08-07T12:55:51;2.65;;;0.30;;
78312;SDS011;67568;47.438;21.408;2023-08-07T12:58:18;1.17;;;0.30;;
78312;SDS011;67568;47.438;21.408;2023-08-07T13:00:45;1.55;;;0.40;;
78312;SDS011;67568;47.438;21.408;2023-08-07T13:03:11;0.90;;;0.30;;
78312;SDS011;67568;47.438;21.408;2023-08-07T13:05:38;1.52;;;0.30;;
78312;SDS011;67568;47.438;21.408;2023-08-07T13:08:05;2.17;;;0.30;;
78312;SDS011;67568;47.438;21.408;2023-08-07T13:10:32;2.10;;;0.30;;
78312;SDS011;67568;47.438;21.408;2023-08-07T13:13:01;0.82;;;0.32;;
78312;SDS011;67568;47.438;21.408;2023-08-07T13:15:28;2.78;;;0.40;;
78312;SDS011;67568;47.438;21.408;2023-08-07T13:17:55;0.90;;;0.30;;
78312;SDS011;67568;47.438;21.408;2023-08-07T13:20:22;1.75;;;0.40;;
78312;SDS011;67568;47.438;21.408;2023-08-07T13:22:51;2.70;;;0.40;;
78312;SDS011;67568;47.438;21.408;2023-08-07T13:25:18;1.98;;;0.35;;
78312;SDS011;67568;47.438;21.408;2023-08-07T13:27:45;1.15;;;0.30;;
78312;SDS011;67568;47.438;21.408;2023-08-07T13:30:11;1.48;;;0.30;;
78312;SDS011;67568;47.438;21.408;2023-08-07T13:32:41;1.17;;;0.47;;
78312;SDS011;67568;47.438;21.408;2023-08-07T13:35:08;2.60;;;0.40;;
78312;SDS011;67568;47.438;21.408;2023-08-07T13:37:35;1.27;;;0.30;;
78312;SDS011;67568;47.438;21.408;2023-08-07T13:40:02;2.88;;;0.40;;
78312;SDS011;67568;47.438;21.408;2023-08-07T13:42:28;2.85;;;0.38;;
78312;SDS011;67568;47.438;21.408;2023-08-07T13:44:55;0.80;;;0.30;;
78312;SDS011;67568;47.438;21.408;2023-08-07T13:47:22;2.87;;;0.30;;
78312;SDS011;67568;47.438;21.408;2023-08-07T13:49:52;0.88;;;0.30;;
78312;SDS011;67568;47.438;21.408;2023-08-07T13:52:19;2.63;;;0.43;;
78312;SDS011;67568;47.438;21.408;2023-08-07T13:54:46;0.93;;;0.30;;
78312;SDS011;67568;47.438;21.408;2023-08-07T13:57:13;2.85;;;0.40;;
78312;SDS011;67568;47.438;21.408;2023-08-07T13:59:40;2.33;;;0.30;;
78312;SDS011;67568;47.438;21.408;2023-08-07T14:02:07;1.50;;;0.30;;
78312;SDS011;67568;47.438;21.408;2023-08-07T14:04:33;1.17;;;0.30;;
78312;SDS011;67568;47.438;21.408;2023-08-07T14:07:01;1.25;;;0.30;;
78312;SDS011;67568;47.438;21.408;2023-08-07T14:09:29;1.08;;;0.30;;
78312;SDS011;67568;47.438;21.408;2023-08-07T14:11:57;0.83;;;0.30;;
78312;SDS011;67568;47.438;21.408;2023-08-07T14:14:24;2.25;;;0.40;;
78312;SDS011;67568;47.438;21.408;2023-08-07T14:16:51;1.80;;;0.30;;
78312;SDS011;67568;47.438;21.408;2023-08-07T14:19:19;1.52;;;0.30;;
78312;SDS011;67568;47.438;21.408;2023-08-07T14:21:46;1.90;;;0.40;;
78312;SDS011;67568;47.438;21.408;2023-08-07T14:24:13;1.10;;;0.37;;
78312;SDS011;67568;47.438;21.408;2023-08-07T14:26:39;2.38;;;0.30;;
78312;SDS011;67568;47.438;21.408;2023-08-07T14:29:06;2.60;;;0.30;;
78312;SDS011;67568;47.438;21.408;2023-08-07T14:31:33;4.82;;;0.30;;
78312;SDS011;67568;47.438;21.408;2023-08-07T14:34:00;1.60;;;0.40;;
78312;SDS011;67568;47.438;21.408;2023-08-07T14:36:27;4.63;;;0.40;;
78312;SDS011;67568;47.438;21.408;2023-08-07T14:38:53;1.15;;;0.30;;
78312;SDS011;67568;47.438;21.408;2023-08-07T14:41:20;0.98;;;0.30;;
78312;SDS011;67568;47.438;21.408;2023-08-07T14:43:47;1.17;;;0.30;;
78312;SDS011;67568;47.438;21.408;2023-08-07T14:46:16;1.48;;;0.40;;
78312;SDS011;67568;47.438;21.408;2023-08-07T14:48:43;2.73;;;0.30;;
78312;SDS011;67568;47.438;21.408;2023-08-07T14:51:10;4.25;;;0.30;;